AAY2935 KSBN-KSFB
Flight info
| Callsign | AAY2935 |
|---|---|
| Flight time | N/A |
| Altitude | 35000 |
| Route | GOTNE SARGO SOGEE/N0449F360 Q65 LORNN/N0443F370 Q65 KERLY KYLEG TTHOR3 |
| Aircraft | A320/M-SDE3FGHIRWY/LB1 |
Departure
| Time | 2026-05-07 01:54 |
|---|---|
| Airport | South Bend International Airport (KSBN) |
Arrival
| Time | N/A |
|---|---|
| Airport | Orlando Sanford International Airport (KSFB) |
| Time | Latitude | Longitude | Altitude | Speed | Heading |
|---|---|---|---|---|---|
| 2026-05-07 01:36 | 41.70194 | -86.31241 | 780 ft | 0 kts | 141° |
| 2026-05-07 01:45 | 41.70207 | -86.31255 | 780 ft | 4 kts | 144° |
| 2026-05-07 01:45 | 41.70230 | -86.31275 | 780 ft | 4 kts | 147° |
| 2026-05-07 01:45 | 41.70251 | -86.31297 | 781 ft | 4 kts | 123° |
| 2026-05-07 01:46 | 41.70256 | -86.31311 | 781 ft | 0 kts | 94° |
| 2026-05-07 01:49 | 41.70256 | -86.31302 | 781 ft | 6 kts | 94° |
| 2026-05-07 01:49 | 41.70251 | -86.31194 | 781 ft | 12 kts | 94° |
| 2026-05-07 01:49 | 41.70248 | -86.31095 | 782 ft | 10 kts | 90° |
| 2026-05-07 01:49 | 41.70250 | -86.31010 | 782 ft | 8 kts | 83° |
| 2026-05-07 01:50 | 41.70283 | -86.30914 | 782 ft | 15 kts | 60° |
| 2026-05-07 01:50 | 41.70307 | -86.30794 | 783 ft | 13 kts | 88° |
| 2026-05-07 01:50 | 41.70309 | -86.30680 | 781 ft | 12 kts | 88° |
| 2026-05-07 01:50 | 41.70311 | -86.30574 | 781 ft | 11 kts | 88° |
| 2026-05-07 01:51 | 41.70317 | -86.30440 | 782 ft | 16 kts | 88° |
| 2026-05-07 01:51 | 41.70319 | -86.30299 | 780 ft | 15 kts | 88° |
| 2026-05-07 01:51 | 41.70321 | -86.30158 | 778 ft | 15 kts | 89° |
| 2026-05-07 01:51 | 41.70323 | -86.30025 | 778 ft | 13 kts | 89° |
| 2026-05-07 01:52 | 41.70327 | -86.29914 | 778 ft | 11 kts | 77° |
| 2026-05-07 01:52 | 41.70376 | -86.29875 | 779 ft | 7 kts | 3° |
| 2026-05-07 01:52 | 41.70443 | -86.29874 | 779 ft | 16 kts | 356° |
| 2026-05-07 01:52 | 41.70479 | -86.29990 | 779 ft | 1 kts | 268° |
| 2026-05-07 01:53 | 41.70478 | -86.30006 | 779 ft | 16 kts | 268° |
| 2026-05-07 01:53 | 41.70471 | -86.30520 | 779 ft | 90 kts | 269° |
| 2026-05-07 01:53 | 41.70455 | -86.31623 | 790 ft | 144 kts | 269° |
| 2026-05-07 01:54 | 41.70452 | -86.33019 | 1278 ft | 147 kts | 271° |
| 2026-05-07 01:54 | 41.70435 | -86.34391 | 2000 ft | 147 kts | 271° |
| 2026-05-07 01:54 | 41.70401 | -86.35757 | 2666 ft | 148 kts | 271° |
| 2026-05-07 01:54 | 41.70363 | -86.37182 | 3136 ft | 162 kts | 270° |
| 2026-05-07 01:55 | 41.70322 | -86.38786 | 3307 ft | 186 kts | 271° |
| 2026-05-07 01:55 | 41.70303 | -86.40604 | 3590 ft | 205 kts | 271° |
| 2026-05-07 01:55 | 41.70293 | -86.42639 | 3817 ft | 233 kts | 271° |
| 2026-05-07 01:55 | 41.70282 | -86.44891 | 4398 ft | 244 kts | 271° |
| 2026-05-07 01:56 | 41.70259 | -86.47163 | 5307 ft | 246 kts | 266° |
| 2026-05-07 01:56 | 41.69736 | -86.49353 | 6095 ft | 255 kts | 239° |
| 2026-05-07 01:56 | 41.68425 | -86.50983 | 6884 ft | 265 kts | 211° |
| 2026-05-07 01:56 | 41.66622 | -86.51615 | 7678 ft | 276 kts | 184° |
| 2026-05-07 01:57 | 41.64712 | -86.51058 | 8459 ft | 288 kts | 158° |
| 2026-05-07 01:57 | 41.62967 | -86.49692 | 9270 ft | 293 kts | 151° |
| 2026-05-07 01:57 | 41.61236 | -86.48224 | 10049 ft | 295 kts | 155° |
| 2026-05-07 01:57 | 41.59379 | -86.46883 | 10383 ft | 314 kts | 157° |
| 2026-05-07 01:58 | 41.57358 | -86.45523 | 10602 ft | 334 kts | 158° |
| 2026-05-07 01:58 | 41.55248 | -86.44138 | 11149 ft | 342 kts | 159° |
| 2026-05-07 01:58 | 41.53092 | -86.42721 | 11784 ft | 348 kts | 159° |
| 2026-05-07 01:58 | 41.50907 | -86.41277 | 12432 ft | 353 kts | 160° |
| 2026-05-07 01:59 | 41.48687 | -86.39803 | 13090 ft | 358 kts | 160° |
| 2026-05-07 01:59 | 41.46446 | -86.38306 | 13731 ft | 363 kts | 161° |
| 2026-05-07 01:59 | 41.44173 | -86.36781 | 14325 ft | 367 kts | 161° |
| 2026-05-07 01:59 | 41.41881 | -86.35240 | 14938 ft | 370 kts | 162° |
| 2026-05-07 02:00 | 41.39582 | -86.33690 | 15563 ft | 372 kts | 162° |
| 2026-05-07 02:00 | 41.37262 | -86.32131 | 16185 ft | 374 kts | 162° |
| 2026-05-07 02:00 | 41.34928 | -86.30568 | 16807 ft | 376 kts | 163° |
| 2026-05-07 02:00 | 41.32609 | -86.29020 | 17406 ft | 379 kts | 163° |
| 2026-05-07 02:01 | 41.30216 | -86.27426 | 18014 ft | 381 kts | 164° |
| 2026-05-07 02:01 | 41.27838 | -86.25846 | 18565 ft | 383 kts | 164° |
| 2026-05-07 02:01 | 41.25480 | -86.24279 | 19052 ft | 387 kts | 164° |
| 2026-05-07 02:01 | 41.23059 | -86.22670 | 19527 ft | 390 kts | 164° |
| 2026-05-07 02:02 | 41.20623 | -86.21050 | 19999 ft | 394 kts | 164° |
| 2026-05-07 02:02 | 41.18160 | -86.19412 | 20471 ft | 397 kts | 164° |
| 2026-05-07 02:02 | 41.15673 | -86.17763 | 20939 ft | 401 kts | 164° |
| 2026-05-07 02:02 | 41.13166 | -86.16104 | 21412 ft | 405 kts | 164° |
| 2026-05-07 02:03 | 41.10638 | -86.14429 | 21883 ft | 409 kts | 163° |
| 2026-05-07 02:03 | 41.08086 | -86.12731 | 22349 ft | 412 kts | 163° |
| 2026-05-07 02:03 | 41.05514 | -86.11023 | 22804 ft | 416 kts | 164° |
| 2026-05-07 02:03 | 41.02910 | -86.09300 | 23278 ft | 419 kts | 164° |
| 2026-05-07 02:04 | 41.00299 | -86.07576 | 23714 ft | 421 kts | 164° |
| 2026-05-07 02:04 | 40.97666 | -86.05857 | 24092 ft | 421 kts | 167° |
| 2026-05-07 02:04 | 40.94958 | -86.04532 | 24473 ft | 409 kts | 176° |
| 2026-05-07 02:04 | 40.92206 | -86.03699 | 24863 ft | 404 kts | 181° |
| 2026-05-07 02:05 | 40.89453 | -86.02933 | 25258 ft | 405 kts | 181° |
| 2026-05-07 02:05 | 40.86689 | -86.02162 | 25655 ft | 406 kts | 182° |
| 2026-05-07 02:05 | 40.83922 | -86.01387 | 26045 ft | 407 kts | 182° |
| 2026-05-07 02:05 | 40.81150 | -86.00612 | 26420 ft | 408 kts | 183° |
| 2026-05-07 02:06 | 40.78372 | -85.99839 | 26787 ft | 409 kts | 184° |
| 2026-05-07 02:06 | 40.75588 | -85.99063 | 27156 ft | 410 kts | 184° |
| 2026-05-07 02:06 | 40.72788 | -85.98282 | 27521 ft | 411 kts | 185° |
| 2026-05-07 02:06 | 40.69989 | -85.97504 | 27883 ft | 412 kts | 185° |
| 2026-05-07 02:07 | 40.67181 | -85.96722 | 28223 ft | 413 kts | 185° |
| 2026-05-07 02:07 | 40.61543 | -85.95153 | 28917 ft | 415 kts | 186° |
| 2026-05-07 02:07 | 40.58714 | -85.94364 | 29242 ft | 416 kts | 187° |
| 2026-05-07 02:08 | 40.55922 | -85.93584 | 29535 ft | 417 kts | 187° |
| 2026-05-07 02:08 | 40.53075 | -85.92793 | 29752 ft | 418 kts | 187° |
| 2026-05-07 02:08 | 40.50219 | -85.92005 | 30031 ft | 420 kts | 188° |
| 2026-05-07 02:08 | 40.47352 | -85.91214 | 30261 ft | 421 kts | 188° |
| 2026-05-07 02:09 | 40.44479 | -85.90420 | 30480 ft | 422 kts | 188° |
| 2026-05-07 02:09 | 40.41600 | -85.89623 | 30693 ft | 424 kts | 188° |
| 2026-05-07 02:09 | 40.38716 | -85.88822 | 30940 ft | 423 kts | 188° |
| 2026-05-07 02:09 | 40.35834 | -85.88016 | 31260 ft | 422 kts | 188° |
| 2026-05-07 02:10 | 40.32967 | -85.87216 | 31573 ft | 420 kts | 188° |
| 2026-05-07 02:10 | 40.30111 | -85.86422 | 31874 ft | 419 kts | 188° |
| 2026-05-07 02:10 | 40.27264 | -85.85636 | 32177 ft | 418 kts | 189° |
| 2026-05-07 02:10 | 40.24425 | -85.84857 | 32475 ft | 417 kts | 189° |
| 2026-05-07 02:11 | 40.21592 | -85.84084 | 32799 ft | 416 kts | 189° |
| 2026-05-07 02:11 | 40.18760 | -85.83310 | 33089 ft | 415 kts | 189° |
| 2026-05-07 02:11 | 40.15939 | -85.82539 | 33374 ft | 414 kts | 189° |
| 2026-05-07 02:11 | 40.13120 | -85.81766 | 33662 ft | 414 kts | 189° |
| 2026-05-07 02:12 | 40.10308 | -85.80992 | 33950 ft | 413 kts | 189° |
| 2026-05-07 02:12 | 40.07501 | -85.80224 | 34201 ft | 412 kts | 189° |
| 2026-05-07 02:12 | 40.04697 | -85.79463 | 34402 ft | 412 kts | 189° |
| 2026-05-07 02:12 | 40.01889 | -85.78701 | 34586 ft | 412 kts | 189° |
| 2026-05-07 02:13 | 39.99073 | -85.77935 | 34769 ft | 413 kts | 189° |
| 2026-05-07 02:13 | 39.96258 | -85.77168 | 34948 ft | 413 kts | 189° |
| 2026-05-07 02:13 | 39.90642 | -85.75629 | 35050 ft | 410 kts | 189° |
| 2026-05-07 02:14 | 39.85068 | -85.74107 | 35049 ft | 408 kts | 189° |
| 2026-05-07 02:14 | 39.79505 | -85.72605 | 35049 ft | 408 kts | 189° |
| 2026-05-07 02:15 | 39.73973 | -85.71107 | 35048 ft | 408 kts | 189° |
| 2026-05-07 02:15 | 39.68377 | -85.69593 | 35048 ft | 408 kts | 189° |
| 2026-05-07 02:16 | 39.62841 | -85.68101 | 35039 ft | 408 kts | 189° |
| 2026-05-07 02:16 | 39.57273 | -85.66603 | 35032 ft | 408 kts | 189° |
| 2026-05-07 02:17 | 39.51704 | -85.65104 | 35025 ft | 408 kts | 189° |
| 2026-05-07 02:17 | 39.46142 | -85.63615 | 35022 ft | 408 kts | 189° |
| 2026-05-07 02:18 | 39.40580 | -85.62122 | 35016 ft | 408 kts | 189° |
| 2026-05-07 02:18 | 39.35008 | -85.60622 | 35017 ft | 408 kts | 189° |
| 2026-05-07 02:19 | 39.29445 | -85.59130 | 35019 ft | 408 kts | 189° |
| 2026-05-07 02:19 | 39.23884 | -85.57648 | 35020 ft | 408 kts | 189° |
| 2026-05-07 02:20 | 39.18327 | -85.56165 | 35021 ft | 408 kts | 189° |
| 2026-05-07 02:20 | 39.12775 | -85.54685 | 35017 ft | 408 kts | 189° |
| 2026-05-07 02:21 | 39.07216 | -85.53211 | 35021 ft | 407 kts | 189° |
| 2026-05-07 02:21 | 39.02604 | -85.51988 | 35026 ft | 407 kts | 189° |
| 2026-05-07 02:22 | 38.97058 | -85.50517 | 35028 ft | 407 kts | 189° |
| 2026-05-07 02:22 | 38.91512 | -85.49045 | 35033 ft | 407 kts | 189° |
| 2026-05-07 02:23 | 38.85073 | -85.47344 | 35040 ft | 406 kts | 189° |
| 2026-05-07 02:23 | 38.80436 | -85.46119 | 35040 ft | 406 kts | 189° |
| 2026-05-07 02:24 | 38.74896 | -85.44665 | 35040 ft | 406 kts | 189° |
| 2026-05-07 02:24 | 38.69351 | -85.43171 | 35046 ft | 415 kts | 185° |
| 2026-05-07 02:25 | 38.66544 | -85.41909 | 35045 ft | 440 kts | 176° |
| 2026-05-07 02:25 | 38.63748 | -85.40260 | 35042 ft | 443 kts | 175° |
| 2026-05-07 02:25 | 38.58154 | -85.36918 | 35031 ft | 444 kts | 175° |
| 2026-05-07 02:26 | 38.52594 | -85.33611 | 35030 ft | 443 kts | 175° |
| 2026-05-07 02:26 | 38.46994 | -85.30311 | 35030 ft | 443 kts | 175° |
| 2026-05-07 02:27 | 38.41398 | -85.27023 | 35026 ft | 443 kts | 175° |
| 2026-05-07 02:27 | 38.35805 | -85.23729 | 35025 ft | 443 kts | 175° |
| 2026-05-07 02:28 | 38.30214 | -85.20452 | 35017 ft | 442 kts | 175° |
| 2026-05-07 02:28 | 38.24628 | -85.17179 | 35018 ft | 442 kts | 175° |
| 2026-05-07 02:29 | 38.19047 | -85.13913 | 35024 ft | 441 kts | 175° |
| 2026-05-07 02:29 | 38.13471 | -85.10666 | 35017 ft | 441 kts | 175° |
| 2026-05-07 02:30 | 38.07892 | -85.07419 | 35011 ft | 441 kts | 175° |
| 2026-05-07 02:30 | 38.02319 | -85.04170 | 35002 ft | 441 kts | 174° |
| 2026-05-07 02:31 | 37.96774 | -85.00951 | 35005 ft | 441 kts | 174° |
| 2026-05-07 02:31 | 37.91195 | -84.97724 | 35003 ft | 441 kts | 174° |
| 2026-05-07 02:32 | 37.85612 | -84.94490 | 35008 ft | 442 kts | 174° |
| 2026-05-07 02:32 | 37.80013 | -84.91249 | 35009 ft | 442 kts | 174° |
| 2026-05-07 02:33 | 37.74417 | -84.88019 | 35012 ft | 442 kts | 174° |
| 2026-05-07 02:33 | 37.68816 | -84.84793 | 35013 ft | 443 kts | 174° |
| 2026-05-07 02:34 | 37.63204 | -84.81572 | 35011 ft | 443 kts | 174° |
| 2026-05-07 02:34 | 37.57584 | -84.78355 | 35010 ft | 444 kts | 174° |
| 2026-05-07 02:35 | 37.51956 | -84.75131 | 35010 ft | 445 kts | 173° |
| 2026-05-07 02:35 | 37.46318 | -84.71897 | 35010 ft | 445 kts | 173° |
| 2026-05-07 02:36 | 37.40671 | -84.68666 | 35010 ft | 446 kts | 173° |
| 2026-05-07 02:36 | 37.35017 | -84.65439 | 34996 ft | 446 kts | 174° |
| 2026-05-07 02:37 | 37.29358 | -84.62225 | 34983 ft | 446 kts | 173° |
| 2026-05-07 02:37 | 37.23703 | -84.59015 | 34982 ft | 446 kts | 174° |
| 2026-05-07 02:38 | 37.18042 | -84.55809 | 34987 ft | 446 kts | 173° |
| 2026-05-07 02:38 | 37.12384 | -84.52613 | 34991 ft | 446 kts | 173° |
| 2026-05-07 02:39 | 37.06764 | -84.49431 | 35004 ft | 446 kts | 173° |
| 2026-05-07 02:39 | 37.01108 | -84.46228 | 35001 ft | 446 kts | 173° |
| 2026-05-07 02:40 | 36.95456 | -84.43039 | 35004 ft | 446 kts | 173° |
| 2026-05-07 02:40 | 36.89804 | -84.39862 | 35019 ft | 445 kts | 173° |
| 2026-05-07 02:41 | 36.84165 | -84.36693 | 35019 ft | 444 kts | 173° |
| 2026-05-07 02:41 | 36.78526 | -84.33526 | 35021 ft | 444 kts | 173° |
| 2026-05-07 02:42 | 36.72884 | -84.30365 | 35020 ft | 444 kts | 173° |
| 2026-05-07 02:42 | 36.67243 | -84.27214 | 35016 ft | 444 kts | 173° |
| 2026-05-07 02:43 | 36.61602 | -84.24070 | 35017 ft | 444 kts | 172° |
| 2026-05-07 02:43 | 36.55987 | -84.21017 | 34972 ft | 436 kts | 177° |
| 2026-05-07 02:44 | 36.53142 | -84.19991 | 34968 ft | 417 kts | 185° |
| 2026-05-07 02:44 | 36.50333 | -84.19503 | 34964 ft | 399 kts | 193° |
| 2026-05-07 02:44 | 36.47615 | -84.19501 | 34962 ft | 387 kts | 198° |
| 2026-05-07 02:44 | 36.44918 | -84.19629 | 34959 ft | 388 kts | 198° |
| 2026-05-07 02:45 | 36.39519 | -84.19856 | 34953 ft | 389 kts | 198° |
| 2026-05-07 02:45 | 36.34101 | -84.20063 | 34957 ft | 390 kts | 198° |
| 2026-05-07 02:46 | 36.28679 | -84.20270 | 34957 ft | 390 kts | 198° |
| 2026-05-07 02:46 | 36.23260 | -84.20478 | 34953 ft | 389 kts | 198° |
| 2026-05-07 02:47 | 36.17845 | -84.20689 | 34951 ft | 390 kts | 198° |
| 2026-05-07 02:47 | 36.12420 | -84.20895 | 34945 ft | 390 kts | 198° |
| 2026-05-07 02:48 | 36.07000 | -84.21118 | 34939 ft | 390 kts | 198° |
| 2026-05-07 02:48 | 36.01581 | -84.21335 | 34938 ft | 390 kts | 198° |
| 2026-05-07 02:49 | 35.96148 | -84.21541 | 34939 ft | 390 kts | 198° |
| 2026-05-07 02:49 | 35.90723 | -84.21749 | 34943 ft | 390 kts | 198° |
| 2026-05-07 02:50 | 35.85296 | -84.21955 | 34946 ft | 390 kts | 198° |
| 2026-05-07 02:50 | 35.79872 | -84.22164 | 34946 ft | 390 kts | 198° |
| 2026-05-07 02:51 | 35.74445 | -84.22381 | 34945 ft | 390 kts | 198° |
| 2026-05-07 02:51 | 35.69015 | -84.22602 | 34966 ft | 390 kts | 198° |
| 2026-05-07 02:52 | 35.63588 | -84.22810 | 34973 ft | 390 kts | 198° |
| 2026-05-07 02:52 | 35.58156 | -84.23016 | 34979 ft | 390 kts | 198° |
| 2026-05-07 02:53 | 35.52723 | -84.23218 | 34983 ft | 391 kts | 197° |
| 2026-05-07 02:53 | 35.47317 | -84.23418 | 34983 ft | 391 kts | 197° |
| 2026-05-07 02:54 | 35.41883 | -84.23621 | 34976 ft | 391 kts | 198° |
| 2026-05-07 02:54 | 35.36408 | -84.23609 | 34962 ft | 408 kts | 188° |
| 2026-05-07 02:55 | 35.33565 | -84.22843 | 34959 ft | 431 kts | 177° |
| 2026-05-07 02:55 | 35.30731 | -84.21438 | 34950 ft | 443 kts | 173° |
| 2026-05-07 02:55 | 35.25072 | -84.18432 | 34956 ft | 443 kts | 172° |
| 2026-05-07 02:56 | 35.19415 | -84.15453 | 34969 ft | 443 kts | 172° |
| 2026-05-07 02:56 | 35.13735 | -84.12488 | 34975 ft | 444 kts | 172° |
| 2026-05-07 02:57 | 35.08060 | -84.09531 | 34975 ft | 444 kts | 172° |
| 2026-05-07 02:57 | 35.02370 | -84.06564 | 34994 ft | 444 kts | 172° |
| 2026-05-07 02:58 | 34.96682 | -84.03606 | 35009 ft | 445 kts | 171° |
| 2026-05-07 02:58 | 34.90990 | -84.00642 | 35015 ft | 445 kts | 171° |
| 2026-05-07 02:59 | 34.85290 | -83.97681 | 35006 ft | 446 kts | 171° |
| 2026-05-07 02:59 | 34.79570 | -83.94714 | 35007 ft | 447 kts | 170° |
| 2026-05-07 03:00 | 34.73842 | -83.91746 | 34988 ft | 448 kts | 170° |
| 2026-05-07 03:00 | 34.68096 | -83.88779 | 34977 ft | 449 kts | 169° |
| 2026-05-07 03:01 | 34.62329 | -83.85803 | 34957 ft | 451 kts | 168° |
| 2026-05-07 03:01 | 34.56626 | -83.82455 | 34949 ft | 466 kts | 157° |
| 2026-05-07 03:02 | 34.54145 | -83.79774 | 34960 ft | 493 kts | 135° |
| 2026-05-07 03:02 | 34.52245 | -83.76254 | 34963 ft | 503 kts | 128° |
| 2026-05-07 03:02 | 34.48328 | -83.69298 | 34975 ft | 495 kts | 137° |
| 2026-05-07 03:03 | 34.43588 | -83.63561 | 34961 ft | 468 kts | 161° |
| 2026-05-07 03:03 | 34.40689 | -83.62126 | 34964 ft | 440 kts | 178° |
| 2026-05-07 03:03 | 34.37717 | -83.61279 | 34960 ft | 439 kts | 178° |
| 2026-05-07 03:04 | 34.31770 | -83.59499 | 34991 ft | 444 kts | 170° |
| 2026-05-07 03:04 | 34.26232 | -83.56473 | 35017 ft | 430 kts | 166° |
| 2026-05-07 03:05 | 34.20804 | -83.53448 | 35020 ft | 429 kts | 166° |
| 2026-05-07 03:05 | 34.15370 | -83.50417 | 35027 ft | 436 kts | 166° |
| 2026-05-07 03:06 | 34.09777 | -83.47295 | 35029 ft | 449 kts | 165° |
| 2026-05-07 03:06 | 34.04027 | -83.44073 | 35000 ft | 461 kts | 165° |
| 2026-05-07 03:07 | 33.98189 | -83.40784 | 35010 ft | 464 kts | 165° |
| 2026-05-07 03:07 | 33.92326 | -83.37492 | 35016 ft | 465 kts | 164° |
| 2026-05-07 03:08 | 33.86452 | -83.34204 | 35007 ft | 466 kts | 164° |
| 2026-05-07 03:08 | 33.80566 | -83.30921 | 34996 ft | 466 kts | 164° |
| 2026-05-07 03:09 | 33.75674 | -83.28200 | 34983 ft | 467 kts | 164° |
| 2026-05-07 03:09 | 33.69780 | -83.24926 | 35009 ft | 467 kts | 164° |
| 2026-05-07 03:10 | 33.63882 | -83.21647 | 35017 ft | 467 kts | 164° |
| 2026-05-07 03:10 | 33.57979 | -83.18368 | 35013 ft | 468 kts | 164° |
| 2026-05-07 03:11 | 33.52069 | -83.15104 | 35008 ft | 468 kts | 164° |
| 2026-05-07 03:11 | 33.46151 | -83.11832 | 34996 ft | 468 kts | 163° |
| 2026-05-07 03:12 | 33.40242 | -83.08574 | 34981 ft | 468 kts | 163° |
| 2026-05-07 03:12 | 33.34325 | -83.05314 | 34956 ft | 468 kts | 163° |
| 2026-05-07 03:13 | 33.28452 | -83.02078 | 34964 ft | 468 kts | 163° |
| 2026-05-07 03:13 | 33.22542 | -82.98828 | 34965 ft | 468 kts | 163° |
| 2026-05-07 03:14 | 33.16632 | -82.95587 | 34963 ft | 467 kts | 163° |
| 2026-05-07 03:15 | 33.07765 | -82.90737 | 34968 ft | 467 kts | 163° |
| 2026-05-07 03:15 | 33.01863 | -82.87509 | 34969 ft | 467 kts | 163° |
| 2026-05-07 03:16 | 32.95956 | -82.84279 | 34971 ft | 467 kts | 163° |
| 2026-05-07 03:16 | 32.90056 | -82.81062 | 34969 ft | 466 kts | 163° |
| 2026-05-07 03:17 | 32.88066 | -82.79979 | 34970 ft | 466 kts | 163° |